Arpin, Wisconsin
Current Conditions -  °F | °C
As of 10:54 PM on Tuesday 25 Nov 2014 (Local Time) from KMFI Reporting Station
Overcast Overcast  
Wind Chill: 21°   Ceiling: 5000
Heat Index: 21°   Visibility: 10mi
Dew Point: 15°   Wind: 3mph
Humidity: 78%   Direction: 180°S
Pressure: 30.08"   Gusts: NA
Location:  44.54°N, 90.04°W
Report Text: KMFI 260454Z AUTO 18003KT 10SM OVC050 M06/M09 A3008 RMK AO2 SLP209 T10611094
Loading
Personal Weather Stations






























Interactive Weather Map New forecast layout! Learn more

10-Day Weather Forecast

Advertisements
Track Severe Weather on mobile